createdAt,value
2018-06-27T00:18:40.027Z,17.20
2018-06-27T00:21:08.249Z,17.30
2018-06-27T00:23:36.727Z,17.30
2018-06-27T00:28:32.959Z,17.20
2018-06-27T00:31:01.187Z,17.20
2018-06-27T00:33:29.382Z,17.10
2018-06-27T00:35:57.601Z,17.10
2018-06-27T00:38:25.825Z,17.00
2018-06-27T00:40:54.008Z,17.10
2018-06-27T00:43:22.236Z,16.90
2018-06-27T00:45:50.444Z,16.70
2018-06-27T00:48:18.667Z,16.50
2018-06-27T00:50:46.914Z,16.30
2018-06-27T00:53:15.117Z,16.30
2018-06-27T00:55:43.347Z,16.10
2018-06-27T00:58:11.555Z,16.20
2018-06-27T01:00:39.751Z,16.10
2018-06-27T01:03:07.968Z,16.20
2018-06-27T01:05:36.192Z,16.10
2018-06-27T01:08:04.482Z,16.10
2018-06-27T01:10:32.790Z,16.20
2018-06-27T01:13:00.941Z,16.30
2018-06-27T01:15:29.370Z,16.40
2018-06-27T01:17:58.172Z,16.30
2018-06-27T01:20:26.776Z,16.40
2018-06-27T01:22:55.052Z,16.40
2018-06-27T01:27:52.668Z,16.40
2018-06-27T01:30:21.690Z,16.40
2018-06-27T01:32:56.212Z,16.40
2018-06-27T01:35:24.450Z,16.30
2018-06-27T01:37:52.657Z,16.30
2018-06-27T01:40:20.894Z,16.20
2018-06-27T01:42:49.139Z,16.20
2018-06-27T01:47:46.092Z,16.20
2018-06-27T01:52:42.297Z,16.00
2018-06-27T01:55:10.543Z,16.10
2018-06-27T01:57:42.727Z,16.00
2018-06-27T02:00:10.965Z,16.10
2018-06-27T02:02:39.294Z,16.10
2018-06-27T02:05:07.567Z,16.10
2018-06-27T02:07:35.916Z,16.00
2018-06-27T02:10:04.245Z,16.00
2018-06-27T02:12:32.506Z,15.90
2018-06-27T02:15:00.734Z,15.90
2018-06-27T02:17:29.061Z,15.90
2018-06-27T02:19:57.329Z,15.80
2018-06-27T02:22:25.628Z,15.70
2018-06-27T02:24:53.855Z,15.60
2018-06-27T02:27:22.210Z,15.50
2018-06-27T02:29:50.425Z,15.60
2018-06-27T02:32:18.660Z,15.70
2018-06-27T02:34:46.856Z,15.70
2018-06-27T02:37:15.088Z,15.80
2018-06-27T02:39:43.459Z,15.70
2018-06-27T02:42:11.753Z,15.70
2018-06-27T02:44:40.011Z,15.70
2018-06-27T02:47:08.827Z,15.70
2018-06-27T02:49:37.058Z,15.60
2018-06-27T02:52:05.358Z,15.60
2018-06-27T02:54:33.612Z,15.50
2018-06-27T02:57:01.902Z,15.40
2018-06-27T02:59:30.164Z,15.50
2018-06-27T03:01:58.479Z,15.50
2018-06-27T03:04:26.721Z,15.50
2018-06-27T03:06:55.093Z,15.40
2018-06-27T03:09:23.320Z,15.40
2018-06-27T03:11:51.570Z,15.40
2018-06-27T03:14:19.816Z,15.40
2018-06-27T03:16:48.067Z,15.50
2018-06-27T03:19:16.378Z,15.40
2018-06-27T03:21:44.616Z,15.40
2018-06-27T03:24:12.873Z,15.40
2018-06-27T03:29:11.971Z,15.40
2018-06-27T03:31:46.965Z,15.30
2018-06-27T03:34:15.274Z,15.20
2018-06-27T03:36:43.945Z,15.20
2018-06-27T03:39:12.196Z,15.20
2018-06-27T03:41:40.475Z,15.20
2018-06-27T03:44:08.740Z,15.10
2018-06-27T03:46:36.950Z,15.30
2018-06-27T03:49:05.496Z,15.20
2018-06-27T03:51:33.725Z,15.20
2018-06-27T03:54:01.969Z,15.20
2018-06-27T03:56:30.227Z,15.20
2018-06-27T03:58:58.497Z,15.20
2018-06-27T04:01:26.708Z,15.20
2018-06-27T04:03:55.108Z,15.20
2018-06-27T04:08:51.319Z,15.10
2018-06-27T04:11:19.553Z,15.20
2018-06-27T04:13:47.874Z,15.30
2018-06-27T04:16:16.104Z,15.30
2018-06-27T04:18:44.378Z,15.30
2018-06-27T04:21:12.608Z,15.40
2018-06-27T04:23:40.904Z,15.40
2018-06-27T04:26:09.175Z,15.50
2018-06-27T04:28:37.452Z,15.50
2018-06-27T04:31:05.772Z,15.50
2018-06-27T04:33:34.043Z,15.40
2018-06-27T04:36:02.340Z,15.40
2018-06-27T04:38:30.510Z,15.40
2018-06-27T04:40:58.793Z,15.50
2018-06-27T04:43:27.044Z,15.50
2018-06-27T04:45:55.357Z,15.60
2018-06-27T04:48:23.563Z,15.60
2018-06-27T04:50:51.798Z,15.60
2018-06-27T04:53:20.031Z,15.70
2018-06-27T04:55:48.267Z,15.70
2018-06-27T04:58:16.496Z,15.80
2018-06-27T05:00:44.787Z,15.90
2018-06-27T05:03:13.040Z,15.90
2018-06-27T05:05:41.286Z,15.90
2018-06-27T05:08:09.521Z,16.00
2018-06-27T05:10:37.815Z,16.00
2018-06-27T05:13:06.046Z,15.90
2018-06-27T05:15:34.280Z,16.00
2018-06-27T05:18:02.561Z,16.30
2018-06-27T05:20:30.822Z,16.40
2018-06-27T05:22:59.132Z,16.40
2018-06-27T05:25:27.536Z,16.30
2018-06-27T05:27:55.747Z,16.30
2018-06-27T05:30:26.222Z,16.20
2018-06-27T05:32:54.480Z,16.30
2018-06-27T05:35:22.722Z,16.40
2018-06-27T05:37:51.002Z,16.20
2018-06-27T05:40:19.222Z,16.30
2018-06-27T05:42:47.556Z,16.30
2018-06-27T05:45:16.042Z,16.50
2018-06-27T05:47:44.320Z,16.60
2018-06-27T05:50:12.536Z,16.60
2018-06-27T05:52:40.798Z,16.70
2018-06-27T05:55:10.534Z,16.70
2018-06-27T05:57:40.833Z,16.60
2018-06-27T06:00:09.887Z,16.80
2018-06-27T06:02:38.162Z,17.00
2018-06-27T06:05:06.380Z,17.10
2018-06-27T06:07:34.627Z,17.10
2018-06-27T06:10:04.134Z,17.10
2018-06-27T06:12:32.916Z,17.10
2018-06-27T06:15:01.161Z,17.10
2018-06-27T06:17:29.368Z,17.20
2018-06-27T06:19:57.594Z,17.40
2018-06-27T06:22:25.858Z,17.50
2018-06-27T06:24:54.089Z,17.40
2018-06-27T06:27:22.341Z,17.50
2018-06-27T06:29:50.611Z,17.50
2018-06-27T06:32:18.926Z,17.50
2018-06-27T06:34:47.132Z,17.60
2018-06-27T06:37:15.437Z,17.70
2018-06-27T06:39:43.624Z,17.70
2018-06-27T06:42:11.872Z,17.80
2018-06-27T06:44:40.154Z,17.90
2018-06-27T06:47:08.628Z,18.00
2018-06-27T06:49:37.065Z,18.00
2018-06-27T06:52:05.384Z,18.00
2018-06-27T06:54:34.081Z,18.00
2018-06-27T06:57:02.308Z,18.10
2018-06-27T06:59:30.530Z,18.20
2018-06-27T07:01:58.780Z,18.30
2018-06-27T07:04:27.131Z,18.40
2018-06-27T07:06:55.375Z,18.50
2018-06-27T07:09:23.635Z,18.50
2018-06-27T07:11:51.897Z,18.60
2018-06-27T07:14:20.131Z,18.70
2018-06-27T07:16:48.368Z,18.70
2018-06-27T07:19:16.627Z,18.80
2018-06-27T07:21:44.870Z,19.00
2018-06-27T07:24:13.099Z,19.10
2018-06-27T07:26:41.733Z,19.10
2018-06-27T07:29:09.959Z,19.20
2018-06-27T07:31:38.179Z,19.30
2018-06-27T07:34:06.574Z,19.30
2018-06-27T07:36:35.202Z,19.50
2018-06-27T07:39:06.186Z,19.60
2018-06-27T07:41:34.856Z,19.70
2018-06-27T07:44:03.152Z,19.70
2018-06-27T07:46:31.374Z,19.80
2018-06-27T07:48:59.656Z,19.90
2018-06-27T07:51:27.886Z,19.90
2018-06-27T07:53:56.132Z,19.90
2018-06-27T07:56:24.755Z,20.00
2018-06-27T07:58:53.052Z,20.20
2018-06-27T08:01:21.338Z,20.20
2018-06-27T08:03:49.559Z,20.30
2018-06-27T08:06:17.786Z,20.30
2018-06-27T08:08:46.017Z,20.30
2018-06-27T08:11:14.331Z,20.60
2018-06-27T08:13:42.647Z,20.60
2018-06-27T08:16:10.878Z,20.70
2018-06-27T08:18:43.022Z,21.00
2018-06-27T08:21:11.454Z,21.00
2018-06-27T08:23:39.859Z,20.90
2018-06-27T08:26:08.218Z,21.00
2018-06-27T08:28:36.354Z,21.10
2018-06-27T08:31:04.568Z,21.00
2018-06-27T08:33:32.887Z,21.00
2018-06-27T08:36:01.120Z,21.20
2018-06-27T08:38:29.526Z,21.30
2018-06-27T08:40:57.895Z,21.50
2018-06-27T08:43:26.544Z,21.70
2018-06-27T08:45:54.777Z,21.70
2018-06-27T08:48:22.986Z,21.60
2018-06-27T08:50:51.223Z,21.60
2018-06-27T08:53:19.409Z,21.70
2018-06-27T08:55:47.676Z,21.70
2018-06-27T08:58:15.929Z,21.90
2018-06-27T09:00:44.247Z,22.00
2018-06-27T09:03:12.490Z,22.20
2018-06-27T09:05:41.040Z,22.20
2018-06-27T09:08:09.253Z,22.40
2018-06-27T09:10:37.549Z,22.50
2018-06-27T09:13:05.753Z,23.00
2018-06-27T09:15:34.018Z,22.90
2018-06-27T09:18:02.267Z,22.90
2018-06-27T09:20:30.642Z,22.90
2018-06-27T09:22:58.898Z,22.70
2018-06-27T09:25:27.156Z,23.00
2018-06-27T09:27:55.370Z,22.90
2018-06-27T09:30:23.613Z,22.90
2018-06-27T09:32:51.897Z,23.00
2018-06-27T09:35:20.258Z,23.20
2018-06-27T09:37:48.512Z,23.40
2018-06-27T09:40:17.281Z,23.40
2018-06-27T09:42:45.514Z,23.50
2018-06-27T09:45:13.958Z,23.50
2018-06-27T09:47:42.208Z,23.70
2018-06-27T09:50:10.436Z,23.80
2018-06-27T09:52:38.717Z,23.90
2018-06-27T09:55:06.988Z,24.00
2018-06-27T09:57:35.256Z,24.00
2018-06-27T10:00:03.519Z,24.00
2018-06-27T10:02:31.829Z,24.10
2018-06-27T10:05:00.614Z,24.20
2018-06-27T10:07:28.831Z,24.20
2018-06-27T10:09:57.075Z,24.20
2018-06-27T10:12:25.269Z,24.30
2018-06-27T10:14:53.531Z,24.40
2018-06-27T10:17:21.847Z,24.50
2018-06-27T10:19:50.038Z,24.40
2018-06-27T10:22:19.274Z,24.50
2018-06-27T10:24:47.471Z,24.50
2018-06-27T10:27:15.701Z,24.70
2018-06-27T10:29:43.951Z,24.60
2018-06-27T10:32:12.185Z,24.50
2018-06-27T10:34:40.417Z,24.50
2018-06-27T10:37:09.094Z,24.40
2018-06-27T10:39:37.328Z,24.60
2018-06-27T10:42:05.647Z,24.70
2018-06-27T10:44:33.935Z,24.50
2018-06-27T10:47:02.116Z,24.60
2018-06-27T10:49:30.354Z,24.70
2018-06-27T10:51:58.580Z,24.60
2018-06-27T10:56:54.812Z,24.90
2018-06-27T10:59:23.054Z,24.70
2018-06-27T11:01:51.327Z,24.80
2018-06-27T11:04:19.606Z,25.00
2018-06-27T11:06:47.840Z,25.00
2018-06-27T11:09:16.105Z,25.00
2018-06-27T11:11:44.406Z,25.00
2018-06-27T11:14:12.782Z,25.00
2018-06-27T11:16:40.984Z,25.00
2018-06-27T11:19:09.208Z,25.00
2018-06-27T11:21:37.418Z,25.20
2018-06-27T11:24:05.665Z,25.10
2018-06-27T11:26:33.924Z,25.10
2018-06-27T11:29:02.209Z,25.10
2018-06-27T11:31:30.453Z,25.10
2018-06-27T11:34:05.112Z,25.20
2018-06-27T11:36:33.397Z,25.10
2018-06-27T11:39:01.648Z,25.20
2018-06-27T11:41:29.836Z,25.30
2018-06-27T11:43:58.098Z,25.60
2018-06-27T11:46:26.301Z,25.60
2018-06-27T11:48:56.331Z,25.50
2018-06-27T11:51:24.548Z,25.40
2018-06-27T11:53:52.791Z,25.50
2018-06-27T11:56:21.079Z,25.50
2018-06-27T11:58:49.302Z,25.60
2018-06-27T12:01:17.533Z,25.50
2018-06-27T12:03:45.761Z,25.50
2018-06-27T12:06:14.036Z,25.60
2018-06-27T12:08:42.295Z,25.70
2018-06-27T12:11:10.486Z,25.90
2018-06-27T12:13:38.731Z,25.30
2018-06-27T12:16:06.969Z,25.40
2018-06-27T12:18:35.216Z,25.70
2018-06-27T12:21:03.485Z,25.80
2018-06-27T12:23:31.728Z,25.60
2018-06-27T12:25:59.967Z,25.80
2018-06-27T12:28:28.188Z,25.90
2018-06-27T12:30:56.469Z,26.00
2018-06-27T12:33:24.961Z,26.20
2018-06-27T12:35:53.230Z,26.20
2018-06-27T12:40:50.435Z,26.20
2018-06-27T12:43:18.807Z,26.20
2018-06-27T12:45:47.026Z,26.10
2018-06-27T12:48:15.258Z,26.30
2018-06-27T12:50:43.525Z,26.20
2018-06-27T12:53:11.801Z,26.10
2018-06-27T12:55:40.027Z,26.30
2018-06-27T12:58:08.311Z,26.50
2018-06-27T13:00:36.553Z,26.60
2018-06-27T13:03:04.812Z,26.30
2018-06-27T13:05:33.096Z,26.30
2018-06-27T13:08:01.342Z,26.30
2018-06-27T13:10:29.609Z,26.20
2018-06-27T13:12:57.862Z,26.60
2018-06-27T13:15:26.093Z,26.40
2018-06-27T13:17:54.356Z,26.40
2018-06-27T13:20:22.600Z,26.40
2018-06-27T13:25:18.829Z,27.00
2018-06-27T13:27:47.097Z,26.80
2018-06-27T13:30:15.391Z,26.40
2018-06-27T13:32:43.643Z,26.30
2018-06-27T13:35:11.906Z,26.40
2018-06-27T13:37:40.215Z,26.40
2018-06-27T13:40:08.478Z,26.40
2018-06-27T13:42:36.881Z,26.60
2018-06-27T13:45:05.795Z,26.60
2018-06-27T13:47:34.078Z,26.60
2018-06-27T13:50:02.358Z,26.80
2018-06-27T13:52:30.616Z,27.10
2018-06-27T13:54:59.548Z,27.20
2018-06-27T13:57:28.666Z,27.00
2018-06-27T13:59:58.196Z,26.90
2018-06-27T14:02:26.372Z,27.00
2018-06-27T14:04:54.631Z,26.90
2018-06-27T14:07:22.832Z,26.90
2018-06-27T14:09:51.070Z,27.10
2018-06-27T14:12:19.363Z,27.10
2018-06-27T14:14:47.635Z,26.80
2018-06-27T14:17:15.959Z,26.80
2018-06-27T14:19:44.214Z,26.80
2018-06-27T14:22:12.488Z,27.00
2018-06-27T14:24:40.740Z,27.30
2018-06-27T14:27:09.014Z,27.10
2018-06-27T14:29:37.231Z,27.30
2018-06-27T14:32:05.475Z,27.30
2018-06-27T14:34:33.688Z,27.10
2018-06-27T14:37:01.922Z,27.00
2018-06-27T14:39:30.153Z,27.10
2018-06-27T14:41:58.375Z,27.10
2018-06-27T14:44:26.575Z,27.00
2018-06-27T14:46:54.824Z,27.20
2018-06-27T14:49:23.224Z,27.40
2018-06-27T14:51:51.334Z,27.20
2018-06-27T14:54:19.694Z,27.20
2018-06-27T14:56:47.935Z,27.30
2018-06-27T14:59:16.241Z,27.20
2018-06-27T15:01:44.469Z,27.20
2018-06-27T15:06:40.698Z,27.30
2018-06-27T15:09:09.548Z,27.80
2018-06-27T15:11:37.835Z,27.50
2018-06-27T15:14:06.074Z,27.30
2018-06-27T15:16:34.704Z,27.40
2018-06-27T15:19:02.899Z,27.30
2018-06-27T15:21:31.115Z,27.10
2018-06-27T15:23:59.325Z,27.40
2018-06-27T15:26:27.637Z,27.60
2018-06-27T15:28:55.875Z,27.50
2018-06-27T15:31:24.088Z,27.30
2018-06-27T15:33:52.297Z,27.40
2018-06-27T15:36:20.648Z,27.40
2018-06-27T15:38:48.863Z,27.50
2018-06-27T15:41:17.130Z,27.30
2018-06-27T15:43:45.391Z,27.40
2018-06-27T15:46:13.671Z,27.40
2018-06-27T15:48:41.893Z,27.70
2018-06-27T15:51:10.914Z,27.80
2018-06-27T15:53:39.166Z,27.70
2018-06-27T15:56:07.435Z,27.30
2018-06-27T15:58:35.775Z,27.70
2018-06-27T16:01:04.034Z,27.50
2018-06-27T16:03:32.237Z,27.10
2018-06-27T16:06:00.444Z,27.30
2018-06-27T16:08:28.667Z,27.20
2018-06-27T16:10:56.871Z,27.40
2018-06-27T16:13:25.117Z,27.50
2018-06-27T16:15:53.348Z,27.50
2018-06-27T16:18:21.581Z,27.30
2018-06-27T16:20:49.912Z,27.00
2018-06-27T16:23:18.113Z,27.00
2018-06-27T16:25:46.366Z,27.20
2018-06-27T16:28:14.637Z,27.30
2018-06-27T16:30:42.859Z,27.50
2018-06-27T16:33:11.115Z,27.50
2018-06-27T16:35:39.526Z,27.30
2018-06-27T16:38:07.789Z,27.60
2018-06-27T16:40:36.037Z,27.50
2018-06-27T16:43:04.683Z,27.30
2018-06-27T16:45:32.865Z,27.50
2018-06-27T16:48:01.110Z,27.40
2018-06-27T16:50:29.415Z,27.30
2018-06-27T16:52:57.618Z,27.30
2018-06-27T16:55:25.859Z,27.40
2018-06-27T16:57:54.102Z,27.30
2018-06-27T17:02:50.257Z,27.40
2018-06-27T17:07:47.314Z,27.00
2018-06-27T17:10:15.565Z,27.00
2018-06-27T17:12:43.845Z,27.10
2018-06-27T17:15:12.092Z,27.10
2018-06-27T17:17:40.358Z,27.10
2018-06-27T17:20:08.683Z,26.90
2018-06-27T17:22:36.929Z,26.80
2018-06-27T17:25:05.179Z,26.70
2018-06-27T17:27:33.422Z,26.50
2018-06-27T17:30:01.663Z,26.70
2018-06-27T17:32:29.882Z,26.70
2018-06-27T17:34:58.126Z,26.60
2018-06-27T17:37:26.372Z,26.10
2018-06-27T17:39:54.575Z,26.20
2018-06-27T17:42:22.806Z,26.40
2018-06-27T17:44:51.046Z,26.30
2018-06-27T17:47:19.320Z,26.30
2018-06-27T17:49:47.558Z,26.30
2018-06-27T17:52:15.804Z,25.90
2018-06-27T17:54:44.090Z,25.90
2018-06-27T17:57:12.435Z,25.90
2018-06-27T17:59:40.721Z,25.90
2018-06-27T18:02:09.013Z,25.80
2018-06-27T18:04:37.240Z,25.70
2018-06-27T18:07:05.493Z,25.40
2018-06-27T18:09:33.757Z,25.60
2018-06-27T18:12:02.020Z,25.40
2018-06-27T18:14:30.472Z,25.40
2018-06-27T18:16:59.153Z,25.40
2018-06-27T18:19:27.405Z,25.40
2018-06-27T18:21:55.666Z,25.20
2018-06-27T18:24:23.945Z,25.10
2018-06-27T18:26:52.201Z,24.90
2018-06-27T18:29:20.480Z,24.90
2018-06-27T18:31:48.680Z,24.80
2018-06-27T18:34:17.106Z,24.80
2018-06-27T18:36:45.383Z,24.70
2018-06-27T18:39:13.706Z,24.70
2018-06-27T18:41:41.960Z,24.40
2018-06-27T18:44:10.302Z,24.30
2018-06-27T18:46:38.647Z,24.20
2018-06-27T18:49:07.377Z,24.30
2018-06-27T18:51:35.676Z,24.20
2018-06-27T18:56:54.583Z,24.00
2018-06-27T18:59:23.009Z,23.90
2018-06-27T19:01:51.319Z,23.90
2018-06-27T19:04:19.690Z,23.90
2018-06-27T19:06:48.008Z,23.70
2018-06-27T19:09:16.288Z,23.60
2018-06-27T19:11:44.551Z,23.50
2018-06-27T19:14:16.141Z,23.40
2018-06-27T19:16:44.564Z,23.20
2018-06-27T19:19:12.842Z,23.20
2018-06-27T19:21:41.115Z,23.00
2018-06-27T19:24:09.396Z,23.10
2018-06-27T19:26:37.631Z,23.00
2018-06-27T19:29:06.145Z,23.00
2018-06-27T19:31:34.428Z,22.90
2018-06-27T19:34:02.681Z,22.80
2018-06-27T19:36:30.990Z,22.70
2018-06-27T19:38:59.360Z,22.60
2018-06-27T19:41:27.625Z,22.70
2018-06-27T19:43:55.976Z,22.40
2018-06-27T19:46:24.345Z,22.30
2018-06-27T19:48:52.687Z,22.20
2018-06-27T19:51:21.075Z,22.10
2018-06-27T19:53:49.305Z,22.00
2018-06-27T19:56:17.601Z,22.10
2018-06-27T19:58:45.845Z,22.10
2018-06-27T20:01:14.131Z,22.10
2018-06-27T20:03:42.417Z,22.10
2018-06-27T20:06:10.708Z,22.00
2018-06-27T20:08:38.953Z,22.00
2018-06-27T20:11:07.274Z,21.90
2018-06-27T20:13:35.510Z,21.90
2018-06-27T20:16:03.928Z,21.90
2018-06-27T20:18:32.964Z,21.90
2018-06-27T20:21:01.569Z,21.70
2018-06-27T20:23:35.157Z,21.60
2018-06-27T20:26:03.578Z,21.40
2018-06-27T20:28:33.332Z,21.30
2018-06-27T20:31:01.696Z,21.20
2018-06-27T20:33:30.555Z,21.10
2018-06-27T20:35:58.834Z,21.00
2018-06-27T20:38:27.578Z,21.00
2018-06-27T20:40:55.981Z,21.00
2018-06-27T20:43:24.896Z,21.00
2018-06-27T20:45:53.503Z,21.00
2018-06-27T20:48:21.993Z,20.90
2018-06-27T20:50:50.494Z,20.90
2018-06-27T20:55:46.890Z,20.70
2018-06-27T20:58:15.198Z,20.60
2018-06-27T21:00:44.165Z,20.60
2018-06-27T21:03:12.430Z,20.40
2018-06-27T21:05:40.710Z,20.20
2018-06-27T21:08:08.977Z,20.30
2018-06-27T21:13:05.370Z,20.10
2018-06-27T21:15:33.720Z,20.20
2018-06-27T21:18:01.973Z,20.30
2018-06-27T21:20:30.230Z,20.20
2018-06-27T21:22:58.526Z,20.00
2018-06-27T21:25:26.805Z,20.00
2018-06-27T21:27:55.215Z,19.90
2018-06-27T21:30:23.496Z,20.00
2018-06-27T21:32:51.817Z,20.00
2018-06-27T21:35:20.078Z,19.90
2018-06-27T21:37:48.401Z,19.80
2018-06-27T21:40:16.692Z,19.80
2018-06-27T21:42:45.089Z,19.80
2018-06-27T21:45:13.440Z,19.70
2018-06-27T21:47:41.755Z,19.60
2018-06-27T21:50:10.040Z,19.70
2018-06-27T21:52:38.359Z,19.60
2018-06-27T21:55:06.775Z,19.70
2018-06-27T21:57:35.058Z,19.50
2018-06-27T22:00:05.476Z,19.30
2018-06-27T22:02:33.736Z,19.30
2018-06-27T22:05:02.020Z,19.40
2018-06-27T22:07:30.324Z,19.50
2018-06-27T22:09:58.618Z,19.50
2018-06-27T22:12:26.910Z,19.40
2018-06-27T22:14:55.194Z,19.40
2018-06-27T22:17:23.450Z,19.30
2018-06-27T22:19:51.692Z,19.10
2018-06-27T22:22:19.922Z,18.90
2018-06-27T22:24:48.200Z,18.80
2018-06-27T22:27:16.474Z,18.80
2018-06-27T22:29:44.764Z,18.80
2018-06-27T22:32:12.987Z,18.90
2018-06-27T22:34:41.224Z,18.80
2018-06-27T22:37:09.507Z,18.70
2018-06-27T22:39:38.234Z,18.70
2018-06-27T22:42:06.489Z,18.70
2018-06-27T22:44:34.836Z,18.70
2018-06-27T22:47:03.185Z,18.50
2018-06-27T22:49:31.512Z,18.80
2018-06-27T22:51:59.790Z,18.80
2018-06-27T22:54:28.121Z,18.70
2018-06-27T22:56:56.379Z,18.60
2018-06-27T22:59:24.695Z,18.70
2018-06-27T23:01:52.948Z,18.50
2018-06-27T23:04:21.307Z,18.40
2018-06-27T23:06:49.672Z,18.40
2018-06-27T23:09:17.945Z,18.50
2018-06-27T23:11:46.164Z,18.20
2018-06-27T23:14:15.009Z,18.30
2018-06-27T23:16:43.207Z,18.20
2018-06-27T23:19:11.524Z,18.20
2018-06-27T23:38:58.693Z,18.20
2018-06-27T23:41:26.964Z,17.90
2018-06-27T23:43:55.251Z,17.90
2018-06-27T23:46:23.506Z,17.90
2018-06-27T23:48:51.813Z,18.00
2018-06-27T23:51:20.126Z,18.00
2018-06-27T23:53:48.328Z,17.60
2018-06-27T23:56:16.631Z,17.50
2018-06-27T23:58:44.892Z,17.50
